createdAt,value
2019-05-22T00:02:29.179Z,21.33
2019-05-22T00:05:05.605Z,23.77
2019-05-22T00:07:37.957Z,22.80
2019-05-22T00:10:06.584Z,25.83
2019-05-22T00:12:46.044Z,25.67
2019-05-22T00:15:04.938Z,25.60
2019-05-22T00:17:33.448Z,20.73
2019-05-22T00:20:05.128Z,25.13
2019-05-22T00:22:34.965Z,30.33
2019-05-22T00:25:04.559Z,25.90
2019-05-22T00:27:34.609Z,22.00
2019-05-22T00:30:05.552Z,20.40
2019-05-22T00:32:36.136Z,20.33
2019-05-22T00:35:04.814Z,24.03
2019-05-22T00:37:33.770Z,24.67
2019-05-22T00:40:03.482Z,22.87
2019-05-22T00:42:32.199Z,21.60
2019-05-22T00:45:02.003Z,23.53
2019-05-22T00:47:32.948Z,25.17
2019-05-22T00:50:03.288Z,19.30
2019-05-22T00:52:49.599Z,27.23
2019-05-22T00:55:36.701Z,23.50
2019-05-22T00:58:18.258Z,25.00
2019-05-22T01:00:51.586Z,23.77
2019-05-22T01:03:21.836Z,26.53
2019-05-22T01:05:51.208Z,19.80
2019-05-22T01:08:21.129Z,21.43
2019-05-22T01:10:52.444Z,26.27
2019-05-22T01:13:21.731Z,26.33
2019-05-22T01:15:51.151Z,27.80
2019-05-22T01:18:21.217Z,28.77
2019-05-22T01:20:51.414Z,26.53
2019-05-22T01:23:20.797Z,22.77
2019-05-22T01:25:48.384Z,25.13
2019-05-22T01:28:16.078Z,20.57
2019-05-22T01:30:51.298Z,21.70
2019-05-22T01:33:27.567Z,24.10
2019-05-22T01:36:13.354Z,29.17
2019-05-22T01:38:41.725Z,25.83
2019-05-22T01:41:15.623Z,27.80
2019-05-22T01:43:43.284Z,25.00
2019-05-22T01:46:11.875Z,25.83
2019-05-22T01:48:43.137Z,25.03
2019-05-22T01:51:13.271Z,27.50
2019-05-22T01:53:43.679Z,31.40
2019-05-22T01:56:13.041Z,26.23
2019-05-22T01:58:42.489Z,24.37
2019-05-22T02:01:15.748Z,30.33
2019-05-22T02:03:46.564Z,32.00
2019-05-22T02:06:16.653Z,29.43
2019-05-22T02:08:55.381Z,24.23
2019-05-22T02:11:26.351Z,29.23
2019-05-22T02:14:07.113Z,31.90
2019-05-22T02:16:36.208Z,29.80
2019-05-22T02:19:04.549Z,29.20
2019-05-22T02:21:36.352Z,28.90
2019-05-22T02:24:06.699Z,32.87
2019-05-22T02:26:35.103Z,26.43
2019-05-22T02:29:04.629Z,29.13
2019-05-22T02:31:32.871Z,29.13
2019-05-22T02:34:07.879Z,31.60
2019-05-22T02:36:39.186Z,31.00
2019-05-22T02:39:12.867Z,27.50
2019-05-22T02:41:46.091Z,28.70
2019-05-22T02:44:14.133Z,29.90
2019-05-22T02:46:41.698Z,30.43
2019-05-22T02:49:11.135Z,30.50
2019-05-22T02:51:40.801Z,29.60
2019-05-22T02:54:09.628Z,32.60
2019-05-22T02:56:37.613Z,29.47
2019-05-22T02:59:08.303Z,28.90
2019-05-22T03:01:37.079Z,31.63
2019-05-22T03:04:07.051Z,31.40
2019-05-22T03:06:35.353Z,29.33
2019-05-22T03:09:15.585Z,34.23
2019-05-22T03:12:08.778Z,32.43
2019-05-22T03:14:39.456Z,32.53
2019-05-22T03:17:24.218Z,32.83
2019-05-22T03:19:52.458Z,34.50
2019-05-22T03:22:24.562Z,27.20
2019-05-22T03:24:54.505Z,29.90
2019-05-22T03:27:43.462Z,31.37
2019-05-22T03:30:20.913Z,30.90
2019-05-22T03:32:49.110Z,32.27
2019-05-22T03:35:17.455Z,34.20
2019-05-22T03:37:45.600Z,36.73
2019-05-22T03:40:13.458Z,34.53
2019-05-22T03:42:42.139Z,32.00
2019-05-22T03:45:11.535Z,30.50
2019-05-22T03:47:41.195Z,32.80
2019-05-22T03:50:10.201Z,32.13
2019-05-22T03:52:37.960Z,28.80
2019-05-22T03:55:07.211Z,29.43
2019-05-22T03:57:35.687Z,27.87
2019-05-22T04:00:05.507Z,29.07
2019-05-22T04:02:33.301Z,27.87
2019-05-22T04:05:02.700Z,28.63
2019-05-22T04:07:30.928Z,26.93
2019-05-22T04:10:00.917Z,27.27
2019-05-22T04:12:31.270Z,31.20
2019-05-22T04:15:00.989Z,30.50
2019-05-22T04:17:31.933Z,28.83
2019-05-22T04:20:00.714Z,30.60
2019-05-22T04:22:29.077Z,32.93
2019-05-22T04:24:56.986Z,34.70
2019-05-22T04:27:26.241Z,31.17
2019-05-22T04:29:56.581Z,36.53
2019-05-22T04:32:30.968Z,30.40
2019-05-22T04:35:12.210Z,30.90
2019-05-22T04:37:41.901Z,29.00
2019-05-22T04:40:51.474Z,30.53
2019-05-22T04:43:23.528Z,28.97
2019-05-22T04:45:53.369Z,32.03
2019-05-22T04:48:22.049Z,27.77
2019-05-22T04:51:27.423Z,25.97
2019-05-22T04:53:57.019Z,28.50
2019-05-22T05:01:47.065Z,28.30
2019-05-22T05:04:28.106Z,28.17
2019-05-22T05:07:18.793Z,25.07
2019-05-22T05:10:05.986Z,27.67
2019-05-22T05:12:34.589Z,25.90
2019-05-22T05:15:04.377Z,18.57
2019-05-22T05:17:31.955Z,17.23
2019-05-22T05:19:59.572Z,17.47
2019-05-22T05:22:42.754Z,21.40
2019-05-22T05:25:10.683Z,22.90
2019-05-22T05:27:38.297Z,18.03
2019-05-22T05:30:06.003Z,17.07
2019-05-22T05:32:34.856Z,18.00
2019-05-22T05:35:08.741Z,14.60
2019-05-22T05:37:36.442Z,18.80
2019-05-22T05:40:34.183Z,17.07
2019-05-22T05:43:03.363Z,21.70
2019-05-22T05:45:32.511Z,18.67
2019-05-22T05:48:01.299Z,17.20
2019-05-22T05:50:38.722Z,20.20
2019-05-22T05:53:01.471Z,18.07
2019-05-22T05:55:49.412Z,20.10
2019-05-22T05:58:27.186Z,22.00
2019-05-22T06:00:58.871Z,24.97
2019-05-22T06:03:35.496Z,30.07
2019-05-22T06:06:23.712Z,21.90
2019-05-22T06:08:51.957Z,22.07
2019-05-22T06:11:51.732Z,21.87
2019-05-22T06:14:25.087Z,23.33
2019-05-22T06:17:56.735Z,23.53
2019-05-22T06:20:27.063Z,25.33
2019-05-22T06:23:49.507Z,24.20
2019-05-22T06:26:39.203Z,24.40
2019-05-22T06:29:09.270Z,29.70
2019-05-22T06:31:46.316Z,29.80
2019-05-22T06:34:59.747Z,30.90
2019-05-22T06:37:36.459Z,24.10
2019-05-22T06:40:05.534Z,31.97
2019-05-22T06:42:33.381Z,23.57
2019-05-22T06:45:00.990Z,28.10
2019-05-22T06:47:29.383Z,28.40
2019-05-22T06:49:57.922Z,33.20
2019-05-22T06:52:26.040Z,25.67
2019-05-22T06:54:57.079Z,24.60
2019-05-22T06:57:29.061Z,25.20
2019-05-22T07:00:12.159Z,29.47
2019-05-22T07:02:30.496Z,30.30
2019-05-22T07:04:58.106Z,30.17
2019-05-22T07:07:27.383Z,54.73
2019-05-22T07:09:56.040Z,29.07
2019-05-22T07:12:25.007Z,25.20
2019-05-22T07:15:52.123Z,23.00
2019-05-22T07:18:23.599Z,22.23
2019-05-22T07:20:54.145Z,23.90
2019-05-22T07:23:32.517Z,24.97
2019-05-22T07:26:01.606Z,26.10
2019-05-22T07:28:29.638Z,21.63
2019-05-22T07:30:57.862Z,23.27
2019-05-22T07:33:25.972Z,23.20
2019-05-22T07:36:09.362Z,22.27
2019-05-22T07:38:24.189Z,19.80
2019-05-22T07:40:52.425Z,27.60
2019-05-22T07:43:21.488Z,22.57
2019-05-22T07:45:50.430Z,24.43
2019-05-22T07:48:19.684Z,19.93
2019-05-22T07:50:49.480Z,17.93
2019-05-22T07:53:17.403Z,20.60
2019-05-22T07:55:45.733Z,19.43
2019-05-22T07:58:15.349Z,17.47
2019-05-22T08:00:49.607Z,17.30
2019-05-22T08:03:19.221Z,20.70
2019-05-22T08:05:49.405Z,18.17
2019-05-22T08:08:18.870Z,15.10
2019-05-22T08:10:46.745Z,17.77
2019-05-22T08:13:14.908Z,17.43
2019-05-22T08:15:42.592Z,14.93
2019-05-22T08:18:11.214Z,16.80
2019-05-22T08:20:39.204Z,17.77
2019-05-22T08:23:07.227Z,17.67
2019-05-22T08:25:35.061Z,13.50
2019-05-22T08:28:03.337Z,16.37
2019-05-22T08:30:31.027Z,17.30
2019-05-22T08:33:04.493Z,13.97
2019-05-22T08:35:32.427Z,16.07
2019-05-22T08:38:00.847Z,16.47
2019-05-22T08:40:29.082Z,13.90
2019-05-22T08:42:57.104Z,20.37
2019-05-22T08:45:25.253Z,14.27
2019-05-22T08:47:54.938Z,14.73
2019-05-22T08:50:24.688Z,16.57
2019-05-22T08:52:52.823Z,17.20
2019-05-22T08:55:21.014Z,21.30
2019-05-22T08:57:51.764Z,14.23
2019-05-22T09:00:21.779Z,16.67
2019-05-22T09:02:49.866Z,14.03
2019-05-22T09:05:21.122Z,14.20
2019-05-22T09:07:47.586Z,11.27
2019-05-22T09:10:15.833Z,14.30
2019-05-22T09:13:09.344Z,15.80
2019-05-22T09:15:37.983Z,14.33
2019-05-22T09:18:06.361Z,14.57
2019-05-22T09:20:48.137Z,15.63
2019-05-22T09:23:03.885Z,12.40
2019-05-22T09:25:32.504Z,11.40
2019-05-22T09:28:00.233Z,10.87
2019-05-22T09:30:28.161Z,12.23
2019-05-22T09:32:56.589Z,11.80
2019-05-22T09:35:24.599Z,10.10
2019-05-22T09:37:52.369Z,8.60
2019-05-22T09:40:20.284Z,9.20
2019-05-22T09:42:48.254Z,10.83
2019-05-22T09:45:16.842Z,8.93
2019-05-22T09:47:45.819Z,8.10
2019-05-22T09:50:15.331Z,7.80
2019-05-22T09:52:56.985Z,8.43
2019-05-22T09:55:15.679Z,9.43
2019-05-22T09:57:43.621Z,7.67
2019-05-22T10:00:11.817Z,9.43
2019-05-22T10:02:39.905Z,8.03
2019-05-22T10:05:09.904Z,7.50
2019-05-22T10:07:57.163Z,8.50
2019-05-22T10:10:09.776Z,6.23
2019-05-22T10:12:37.775Z,7.63
2019-05-22T10:15:08.214Z,8.13
2019-05-22T10:17:36.977Z,7.30
2019-05-22T10:20:05.857Z,8.47
2019-05-22T10:22:33.754Z,9.23
2019-05-22T10:25:15.860Z,8.07
2019-05-22T10:27:38.796Z,9.17
2019-05-22T10:30:12.219Z,8.93
2019-05-22T10:32:40.336Z,9.27
2019-05-22T10:35:13.151Z,8.13
2019-05-22T10:37:40.478Z,7.30
2019-05-22T10:40:13.456Z,9.57
2019-05-22T10:42:46.071Z,7.67
2019-05-22T10:45:15.060Z,8.20
2019-05-22T10:47:45.033Z,8.27
2019-05-22T10:50:20.023Z,8.30
2019-05-22T10:52:53.736Z,7.67
2019-05-22T10:55:18.377Z,8.93
2019-05-22T10:57:46.351Z,8.17
2019-05-22T11:00:23.518Z,10.20
2019-05-22T11:02:51.328Z,9.93
2019-05-22T11:05:20.270Z,5.93
2019-05-22T11:07:56.007Z,5.67
2019-05-22T11:10:28.786Z,6.20
2019-05-22T11:12:57.370Z,6.90
2019-05-22T11:15:31.798Z,8.47
2019-05-22T11:18:03.185Z,6.57
2019-05-22T11:20:36.649Z,6.93
2019-05-22T11:23:14.535Z,7.10
2019-05-22T11:25:54.687Z,7.17
2019-05-22T11:28:26.601Z,6.60
2019-05-22T11:30:54.838Z,6.23
2019-05-22T11:33:25.888Z,6.00
2019-05-22T11:38:44.004Z,7.17
2019-05-22T11:41:23.210Z,9.40
2019-05-22T11:43:51.611Z,5.80
2019-05-22T11:46:19.722Z,6.50
2019-05-22T11:48:48.084Z,6.37
2019-05-22T11:51:19.397Z,6.80
2019-05-22T11:53:47.567Z,6.57
2019-05-22T11:56:16.330Z,6.50
2019-05-22T11:59:14.195Z,7.70
2019-05-22T12:01:43.526Z,8.57
2019-05-22T12:04:12.568Z,8.10
2019-05-22T12:06:43.669Z,8.80
2019-05-22T12:09:21.987Z,10.20
2019-05-22T12:15:31.330Z,10.40
2019-05-22T12:18:03.907Z,8.10
2019-05-22T12:20:38.458Z,9.07
2019-05-22T12:23:06.749Z,6.63
2019-05-22T12:25:52.165Z,9.73
2019-05-22T12:28:51.025Z,7.03
2019-05-22T12:31:16.438Z,7.17
2019-05-22T12:33:44.584Z,8.23
2019-05-22T12:36:13.503Z,11.93
2019-05-22T12:38:55.625Z,8.30
2019-05-22T12:46:10.739Z,8.17
2019-05-22T12:49:37.696Z,6.80
2019-05-22T12:52:15.338Z,6.27
2019-05-22T12:55:28.120Z,6.33
2019-05-22T12:58:10.043Z,8.83
2019-05-22T13:01:07.143Z,7.70
2019-05-22T13:03:47.607Z,8.10
2019-05-22T13:06:26.797Z,8.10
2019-05-22T13:09:17.485Z,9.93
2019-05-22T13:11:45.995Z,9.33
2019-05-22T13:14:23.335Z,8.27
2019-05-22T13:17:04.229Z,7.80
2019-05-22T13:19:58.049Z,8.37
2019-05-22T13:22:42.537Z,8.10
2019-05-22T13:25:15.331Z,7.13
2019-05-22T13:27:45.352Z,10.90
2019-05-22T13:30:17.474Z,6.70
2019-05-22T13:32:46.032Z,7.40
2019-05-22T13:35:28.998Z,8.10
2019-05-22T13:38:02.285Z,7.83
2019-05-22T13:40:41.793Z,7.13
2019-05-22T13:43:10.813Z,9.50
2019-05-22T13:45:44.454Z,7.73
2019-05-22T13:48:29.041Z,6.70
2019-05-22T13:51:14.160Z,7.80
2019-05-22T13:53:44.464Z,7.03
2019-05-22T13:56:18.375Z,6.87
2019-05-22T13:58:51.678Z,8.40
2019-05-22T14:01:24.415Z,7.10
2019-05-22T14:04:07.903Z,7.40
2019-05-22T14:06:36.223Z,9.40
2019-05-22T14:09:37.728Z,9.10
2019-05-22T14:12:20.430Z,8.60
2019-05-22T14:14:48.538Z,9.10
2019-05-22T14:17:16.273Z,8.90
2019-05-22T14:19:44.404Z,9.10
2019-05-22T14:22:12.153Z,6.73
2019-05-22T14:24:39.916Z,6.33
2019-05-22T14:27:08.191Z,7.47
2019-05-22T14:29:35.953Z,7.83
2019-05-22T14:32:05.024Z,6.10
2019-05-22T14:34:33.013Z,7.23
2019-05-22T14:37:04.621Z,5.47
2019-05-22T14:39:32.857Z,8.27
2019-05-22T14:42:04.933Z,7.87
2019-05-22T14:44:37.402Z,6.20
2019-05-22T14:47:21.355Z,6.53
2019-05-22T14:49:49.222Z,6.40
2019-05-22T14:52:17.615Z,8.40
2019-05-22T14:54:45.341Z,5.20
2019-05-22T14:57:13.701Z,7.70
2019-05-22T14:59:44.069Z,8.60
2019-05-22T15:02:11.739Z,4.60
2019-05-22T15:04:42.841Z,4.63
2019-05-22T15:07:11.094Z,5.30
2019-05-22T15:09:48.050Z,6.60
2019-05-22T15:12:15.934Z,5.00
2019-05-22T15:14:59.394Z,5.00
2019-05-22T15:18:03.315Z,5.70
2019-05-22T15:20:53.831Z,6.87
2019-05-22T15:27:48.664Z,4.30
2019-05-22T15:30:30.230Z,7.87
2019-05-22T15:33:15.016Z,7.47
2019-05-22T15:36:10.297Z,9.20
2019-05-22T15:39:26.942Z,9.30
2019-05-22T15:44:13.908Z,8.33
2019-05-22T15:53:47.633Z,8.70
2019-05-22T15:56:15.811Z,7.90
2019-05-22T15:58:50.777Z,10.10
2019-05-22T16:01:35.651Z,6.30
2019-05-22T16:04:14.025Z,6.03
2019-05-22T16:06:45.779Z,9.13
2019-05-22T16:09:19.387Z,7.43
2019-05-22T16:11:51.152Z,5.83
2019-05-22T16:14:31.649Z,6.10
2019-05-22T16:16:55.463Z,6.23
2019-05-22T16:19:28.774Z,7.23
2019-05-22T16:22:01.678Z,5.60
2019-05-22T16:24:29.915Z,7.90
2019-05-22T16:27:09.017Z,6.83
2019-05-22T16:29:40.275Z,6.50
2019-05-22T16:32:11.861Z,7.60
2019-05-22T16:34:48.956Z,5.70
2019-05-22T16:37:26.932Z,6.97
2019-05-22T16:39:59.836Z,6.40
2019-05-22T16:42:32.098Z,8.30
2019-05-22T16:45:01.386Z,8.43
2019-05-22T16:47:33.646Z,7.33
2019-05-22T16:50:07.492Z,8.07
2019-05-22T16:52:38.875Z,6.27
2019-05-22T16:55:09.811Z,7.60
2019-05-22T16:57:40.071Z,6.97
2019-05-22T17:00:10.694Z,5.90
2019-05-22T17:02:40.295Z,7.20
2019-05-22T17:05:11.229Z,6.83
2019-05-22T17:08:06.728Z,5.60
2019-05-22T17:10:47.749Z,5.67
2019-05-22T17:13:18.028Z,7.80
2019-05-22T17:15:47.075Z,5.67
2019-05-22T17:18:20.873Z,5.80
2019-05-22T17:20:55.269Z,5.47
2019-05-22T17:24:11.140Z,5.17
2019-05-22T17:27:33.218Z,5.40
2019-05-22T17:30:50.907Z,5.60
2019-05-22T17:33:47.678Z,3.90
2019-05-22T17:37:50.983Z,6.87
2019-05-22T17:41:09.393Z,4.57
2019-05-22T17:44:24.369Z,4.33
2019-05-22T17:47:10.738Z,7.97
2019-05-22T17:53:25.427Z,5.50
2019-05-22T17:56:00.465Z,4.07
2019-05-22T17:58:31.857Z,4.30
2019-05-22T18:01:17.895Z,5.80
2019-05-22T18:03:53.294Z,6.07
2019-05-22T18:06:24.547Z,5.00
2019-05-22T18:09:12.626Z,5.73
2019-05-22T18:11:52.038Z,6.40
2019-05-22T18:14:27.441Z,6.53
2019-05-22T18:17:16.132Z,7.70
2019-05-22T18:19:54.340Z,6.93
2019-05-22T18:22:28.747Z,5.53
2019-05-22T18:24:57.651Z,6.00
2019-05-22T18:27:32.764Z,6.10
2019-05-22T18:30:03.673Z,4.90
2019-05-22T18:32:35.038Z,7.30
2019-05-22T18:35:02.865Z,6.10
2019-05-22T18:37:38.065Z,6.80
2019-05-22T18:40:05.976Z,6.57
2019-05-22T18:42:33.914Z,7.00
2019-05-22T18:45:01.595Z,6.50
2019-05-22T18:47:29.991Z,7.03
2019-05-22T18:49:57.775Z,6.87
2019-05-22T18:52:39.908Z,7.87
2019-05-22T18:54:55.256Z,7.20
2019-05-22T18:57:22.961Z,6.43
2019-05-22T18:59:50.810Z,6.57
2019-05-22T19:02:18.657Z,6.30
2019-05-22T19:04:56.729Z,7.63
2019-05-22T19:07:27.935Z,6.60
2019-05-22T19:10:02.582Z,5.63
2019-05-22T19:12:35.763Z,7.97
2019-05-22T19:15:04.009Z,7.17
2019-05-22T19:17:35.257Z,5.67
2019-05-22T19:20:12.276Z,5.20
2019-05-22T19:22:40.467Z,8.63
2019-05-22T19:25:22.910Z,5.67
2019-05-22T19:28:10.700Z,5.87
2019-05-22T19:30:48.756Z,5.43
2019-05-22T19:33:34.571Z,5.27
2019-05-22T19:36:08.211Z,8.33
2019-05-22T19:38:36.437Z,40.37
2019-05-22T19:41:20.105Z,16.23
2019-05-22T19:44:20.168Z,9.03
2019-05-22T19:47:12.025Z,6.03
2019-05-22T19:50:02.835Z,6.40
2019-05-22T19:52:54.363Z,6.70
2019-05-22T19:55:32.787Z,6.10
2019-05-22T19:58:06.973Z,7.50
2019-05-22T20:00:35.343Z,6.80
2019-05-22T20:03:19.684Z,7.43
2019-05-22T20:06:31.622Z,9.80
2019-05-22T20:09:01.021Z,9.00
2019-05-22T20:11:43.502Z,10.20
2019-05-22T20:14:19.089Z,13.40
2019-05-22T20:16:51.301Z,8.00
2019-05-22T20:19:30.063Z,10.40
2019-05-22T20:22:29.243Z,10.13
2019-05-22T20:25:27.840Z,10.10
2019-05-22T20:28:51.765Z,11.70
2019-05-22T20:31:20.266Z,10.80
2019-05-22T20:33:53.775Z,10.00
2019-05-22T20:36:35.162Z,9.30
2019-05-22T20:39:22.090Z,10.17
2019-05-22T20:41:58.376Z,11.13
2019-05-22T20:47:49.185Z,7.60
2019-05-22T20:50:15.355Z,9.83
2019-05-22T20:52:55.306Z,9.73
2019-05-22T20:55:26.848Z,10.63
2019-05-22T20:58:00.712Z,11.40
2019-05-22T21:00:29.660Z,10.33
2019-05-22T21:03:03.509Z,8.83
2019-05-22T21:05:32.018Z,13.80
2019-05-22T21:08:12.709Z,9.33
2019-05-22T21:10:44.161Z,10.93
2019-05-22T21:13:22.601Z,12.70
2019-05-22T21:15:52.822Z,14.13
2019-05-22T21:18:30.991Z,10.87
2019-05-22T21:21:02.197Z,12.17
2019-05-22T21:23:35.316Z,13.40
2019-05-22T21:26:06.778Z,13.30
2019-05-22T21:28:44.734Z,11.33
2019-05-22T21:31:16.018Z,13.70
2019-05-22T21:33:45.854Z,9.90
2019-05-22T21:36:20.598Z,12.83
2019-05-22T21:38:52.262Z,9.60
2019-05-22T21:41:24.149Z,11.50
2019-05-22T21:43:53.789Z,10.90
2019-05-22T21:46:28.235Z,12.60
2019-05-22T21:48:57.454Z,9.10
2019-05-22T21:51:31.970Z,9.57
2019-05-22T21:54:03.826Z,8.60
2019-05-22T21:56:32.742Z,8.63
2019-05-22T21:59:02.918Z,10.77
2019-05-22T22:01:43.380Z,8.00
2019-05-22T22:04:23.022Z,8.33
2019-05-22T22:06:56.416Z,8.27
2019-05-22T22:09:27.467Z,8.10
2019-05-22T22:12:00.534Z,8.33
2019-05-22T22:14:39.263Z,11.33
2019-05-22T22:17:12.296Z,10.60
2019-05-22T22:19:44.402Z,8.63
2019-05-22T22:22:19.597Z,8.20
2019-05-22T22:24:50.836Z,6.93
2019-05-22T22:28:36.561Z,9.53
2019-05-22T22:30:59.023Z,7.70
2019-05-22T22:33:31.272Z,7.00
2019-05-22T22:35:59.935Z,7.13
2019-05-22T22:38:32.353Z,8.43
2019-05-22T22:41:04.506Z,10.40
2019-05-22T22:43:33.423Z,7.90
2019-05-22T22:46:26.796Z,9.67
2019-05-22T22:48:56.393Z,9.20
2019-05-22T22:51:25.515Z,9.30
2019-05-22T22:53:55.299Z,10.30
2019-05-22T22:56:23.575Z,12.27
2019-05-22T22:58:52.151Z,16.40
2019-05-22T23:01:26.544Z,10.90
2019-05-22T23:03:57.684Z,9.60
2019-05-22T23:06:25.270Z,13.67
2019-05-22T23:08:52.990Z,9.00
2019-05-22T23:11:21.882Z,9.73
2019-05-22T23:13:50.941Z,13.57
2019-05-22T23:16:20.591Z,9.07
2019-05-22T23:19:24.952Z,9.63
2019-05-22T23:21:52.142Z,9.70
2019-05-22T23:24:22.391Z,8.53
2019-05-22T23:26:51.147Z,10.80
2019-05-22T23:29:19.121Z,11.67
2019-05-22T23:31:47.937Z,10.57
2019-05-22T23:34:16.366Z,12.57
2019-05-22T23:36:44.772Z,10.70
2019-05-22T23:39:14.990Z,12.03
2019-05-22T23:41:44.529Z,9.13
2019-05-22T23:44:13.373Z,14.50
2019-05-22T23:46:42.451Z,10.37
2019-05-22T23:49:11.354Z,10.67
2019-05-22T23:51:39.224Z,9.07
2019-05-22T23:54:09.152Z,9.97
2019-05-22T23:56:39.447Z,22.23
2019-05-22T23:59:07.638Z,9.57
